CWD2 weather

Alta Heliport
Collingwood, Ontario, Canada

Public forecast

Using degrees Celsius for public forecast. Weather courtesy of forecast.io.

Closest aviation weather report (METAR) to Alta Heliport

Closest report is CFB Borden, 24.5 nm (45.3 km) SE. Retrieved 2019/10/21 19:00 UTC (15 minutes ago):

CYBN 211900Z AUTO 14016G21KT 9SM CLR 16/07 A2997 RMK SLP153

Closest aviation forecast (TAF) to Alta Heliport

Closest forecast is CFB Borden, 24.5 nm (45.3 km) SE. Retrieved 2019/10/21 18:33 UTC (42 minutes ago):

TAF TAF CYBN 211730Z 2118/2206 13010G20KT P6SM BKN200 FM212300 14012KT P6SM BKN080 OVC200 FM220300 14015KT P6SM SCT020 OVC080 TEMPO 2203/2206 P6SM -RA BKN020 OVC080 RMK FCST BASED ON AUTO OBS NXT FCST BY 220000Z